createdAt,value
2022-10-12T00:01:16.230Z,30.17
2022-10-12T00:03:42.747Z,30.77
2022-10-12T00:06:19.806Z,29.65
2022-10-12T00:08:47.322Z,30.02
2022-10-12T00:11:17.462Z,28.83
2022-10-12T00:13:43.882Z,29.55
2022-10-12T00:16:12.768Z,31.33
2022-10-12T00:18:39.787Z,35.65
2022-10-12T00:21:10.266Z,34.20
2022-10-12T00:23:38.204Z,28.67
2022-10-12T00:26:07.670Z,30.30
2022-10-12T00:28:34.916Z,29.65
2022-10-12T00:31:02.073Z,29.23
2022-10-12T00:33:29.311Z,29.75
2022-10-12T00:35:55.764Z,30.50
2022-10-12T00:38:22.939Z,23.23
2022-10-12T00:40:49.662Z,24.23
2022-10-12T00:43:35.919Z,25.05
2022-10-12T00:46:09.818Z,26.45
2022-10-12T00:48:36.900Z,28.00
2022-10-12T00:51:04.419Z,27.75
2022-10-12T00:53:37.587Z,34.55
2022-10-12T00:56:10.874Z,34.00
2022-10-12T00:58:37.673Z,37.90
2022-10-12T01:01:05.706Z,36.40
2022-10-12T01:03:32.459Z,36.58
2022-10-12T01:06:00.268Z,36.38
2022-10-12T01:08:28.919Z,36.08
2022-10-12T01:10:55.459Z,35.38
2022-10-12T01:13:21.952Z,35.53
2022-10-12T01:16:11.467Z,39.03
2022-10-12T01:18:50.305Z,35.92
2022-10-12T01:21:23.404Z,34.70
2022-10-12T01:24:23.571Z,35.63
2022-10-12T01:26:53.119Z,34.05
2022-10-12T01:29:49.091Z,34.17
2022-10-12T01:32:25.117Z,35.97
2022-10-12T01:35:25.432Z,31.77
2022-10-12T01:38:27.609Z,30.27
2022-10-12T01:41:36.191Z,30.33
2022-10-12T01:44:02.861Z,27.02
2022-10-12T01:46:29.130Z,26.77
2022-10-12T01:48:58.539Z,26.58
2022-10-12T01:51:59.470Z,25.25
2022-10-12T01:54:46.833Z,23.95
2022-10-12T01:57:36.207Z,21.70
2022-10-12T02:00:21.002Z,22.27
2022-10-12T02:02:58.439Z,25.63
2022-10-12T02:05:38.406Z,25.17
2022-10-12T02:08:14.035Z,26.92
2022-10-12T02:10:50.483Z,25.70
2022-10-12T02:13:20.054Z,25.83
2022-10-12T02:15:48.627Z,26.65
2022-10-12T02:18:18.630Z,29.50
2022-10-12T02:20:51.087Z,27.90
2022-10-12T02:23:19.122Z,27.85
2022-10-12T02:25:47.029Z,26.33
2022-10-12T02:28:17.770Z,26.45
2022-10-12T02:30:50.433Z,26.65
2022-10-12T02:33:35.441Z,27.33
2022-10-12T02:36:10.270Z,28.52
2022-10-12T02:38:46.554Z,30.13
2022-10-12T02:41:19.770Z,26.48
2022-10-12T02:43:56.574Z,27.48
2022-10-12T02:46:26.068Z,26.60
2022-10-12T02:48:54.965Z,25.58
2022-10-12T02:51:23.619Z,24.67
2022-10-12T02:53:50.677Z,23.40
2022-10-12T02:56:17.061Z,21.88
2022-10-12T02:58:45.688Z,21.00
2022-10-12T03:01:13.578Z,18.52
2022-10-12T03:03:40.657Z,19.92
2022-10-12T03:06:07.490Z,20.13
2022-10-12T03:08:33.923Z,18.88
2022-10-12T03:11:07.806Z,20.00
2022-10-12T03:13:34.521Z,19.83
2022-10-12T03:16:05.956Z,19.50
2022-10-12T03:18:32.782Z,21.00
2022-10-12T03:20:59.108Z,25.08
2022-10-12T03:23:26.193Z,25.85
2022-10-12T03:25:52.642Z,27.80
2022-10-12T03:28:19.442Z,24.35
2022-10-12T03:30:45.989Z,22.08
2022-10-12T03:33:13.078Z,24.70
2022-10-12T03:35:39.821Z,21.33
2022-10-12T03:38:06.580Z,22.80
2022-10-12T03:40:32.962Z,20.98
2022-10-12T03:42:59.350Z,18.27
2022-10-12T03:45:25.654Z,18.05
2022-10-12T03:47:51.993Z,19.70
2022-10-12T03:50:18.417Z,19.65
2022-10-12T03:52:44.772Z,20.05
2022-10-12T03:55:13.956Z,17.83
2022-10-12T03:57:40.895Z,18.80
2022-10-12T04:00:08.218Z,18.17
2022-10-12T04:02:34.710Z,17.50
2022-10-12T04:05:01.115Z,18.15
2022-10-12T04:07:27.592Z,20.77
2022-10-12T04:09:54.105Z,20.52
2022-10-12T04:12:20.561Z,18.83
2022-10-12T04:14:46.929Z,17.67
2022-10-12T04:17:16.307Z,17.42
2022-10-12T04:19:43.385Z,17.67
2022-10-12T04:22:09.777Z,18.70
2022-10-12T04:24:36.466Z,18.75
2022-10-12T04:27:03.282Z,19.23
2022-10-12T04:29:29.703Z,25.08
2022-10-12T04:31:56.342Z,24.40
2022-10-12T04:34:23.084Z,26.38
2022-10-12T04:36:50.429Z,27.98
2022-10-12T04:39:32.412Z,27.83
2022-10-12T04:41:58.796Z,26.00
2022-10-12T04:44:29.717Z,24.77
2022-10-12T04:46:58.706Z,23.17
2022-10-12T04:49:25.031Z,22.63
2022-10-12T04:51:51.350Z,20.88
2022-10-12T04:54:17.763Z,20.55
2022-10-12T04:56:47.717Z,22.77
2022-10-12T04:59:14.611Z,20.70
2022-10-12T05:01:41.036Z,20.88
2022-10-12T05:04:07.443Z,20.00
2022-10-12T05:06:33.818Z,19.65
2022-10-12T05:09:00.134Z,19.52
2022-10-12T05:11:26.478Z,18.52
2022-10-12T05:13:52.825Z,18.05
2022-10-12T05:16:19.160Z,18.30
2022-10-12T05:18:45.473Z,17.42
2022-10-12T05:21:11.818Z,18.30
2022-10-12T05:23:38.136Z,21.65
2022-10-12T05:26:04.567Z,21.27
2022-10-12T05:28:31.021Z,23.02
2022-10-12T05:30:57.395Z,26.58
2022-10-12T05:33:23.749Z,24.73
2022-10-12T05:35:56.101Z,22.92
2022-10-12T05:38:22.885Z,22.38
2022-10-12T05:40:49.263Z,21.20
2022-10-12T05:43:15.609Z,21.08
2022-10-12T05:45:43.138Z,22.52
2022-10-12T05:48:09.511Z,21.38
2022-10-12T05:50:35.855Z,20.95
2022-10-12T05:53:02.205Z,19.90
2022-10-12T05:55:28.622Z,21.23
2022-10-12T05:57:55.115Z,20.98
2022-10-12T06:00:21.996Z,20.27
2022-10-12T06:02:48.474Z,20.35
2022-10-12T06:05:15.168Z,24.02
2022-10-12T06:07:41.685Z,24.55
2022-10-12T06:10:08.922Z,25.95
2022-10-12T06:12:35.501Z,26.48
2022-10-12T06:15:02.050Z,27.02
2022-10-12T06:17:28.383Z,25.30
2022-10-12T06:19:54.735Z,25.35
2022-10-12T06:22:25.048Z,25.15
2022-10-12T06:24:54.442Z,23.70
2022-10-12T06:27:20.775Z,24.00
2022-10-12T06:29:47.126Z,23.88
2022-10-12T06:32:13.608Z,25.60
2022-10-12T06:34:39.960Z,24.92
2022-10-12T06:37:06.293Z,23.60
2022-10-12T06:39:32.610Z,25.33
2022-10-12T06:41:59.493Z,24.23
2022-10-12T06:44:26.157Z,24.48
2022-10-12T06:46:53.421Z,24.83
2022-10-12T06:49:19.914Z,26.88
2022-10-12T06:51:46.298Z,29.73
2022-10-12T06:54:12.760Z,25.45
2022-10-12T06:56:39.607Z,25.50
2022-10-12T06:59:06.328Z,27.42
2022-10-12T07:01:32.882Z,28.60
2022-10-12T07:04:00.908Z,27.08
2022-10-12T07:06:27.479Z,27.45
2022-10-12T07:08:54.582Z,29.92
2022-10-12T07:11:21.308Z,28.67
2022-10-12T07:13:47.671Z,32.63
2022-10-12T07:16:14.041Z,31.80
2022-10-12T07:18:40.490Z,32.45
2022-10-12T07:21:06.950Z,36.63
2022-10-12T07:23:34.508Z,36.33
2022-10-12T07:26:01.604Z,37.97
2022-10-12T07:28:31.570Z,40.45
2022-10-12T07:31:20.896Z,42.58
2022-10-12T07:33:47.225Z,48.42
2022-10-12T07:36:15.613Z,42.40
2022-10-12T07:38:45.992Z,40.22
2022-10-12T07:41:13.114Z,34.53
2022-10-12T07:43:39.424Z,36.78
2022-10-12T07:46:06.325Z,29.77
2022-10-12T07:48:33.331Z,32.88
2022-10-12T07:51:07.449Z,27.90
2022-10-12T07:53:35.095Z,27.30
2022-10-12T07:56:02.523Z,28.30
2022-10-12T07:58:29.202Z,23.25
2022-10-12T08:00:55.529Z,32.67
2022-10-12T08:03:21.991Z,29.42
2022-10-12T08:05:48.862Z,28.15
2022-10-12T08:08:15.351Z,29.13
2022-10-12T08:10:41.780Z,28.00
2022-10-12T08:13:08.137Z,30.25
2022-10-12T08:15:35.869Z,30.63
2022-10-12T08:18:02.185Z,29.38
2022-10-12T08:20:28.556Z,32.05
2022-10-12T08:22:55.177Z,29.15
2022-10-12T08:25:21.552Z,30.88
2022-10-12T08:27:48.429Z,29.90
2022-10-12T08:30:14.922Z,29.63
2022-10-12T08:32:41.404Z,29.58
2022-10-12T08:35:07.775Z,24.45
2022-10-12T08:37:34.125Z,26.17
2022-10-12T08:42:59.335Z,26.65
2022-10-12T08:46:01.828Z,26.75
2022-10-12T08:48:34.177Z,25.85
2022-10-12T08:51:05.294Z,24.45
2022-10-12T08:53:55.971Z,26.33
2022-10-12T08:56:24.212Z,25.17
2022-10-12T08:58:52.948Z,26.58
2022-10-12T09:01:37.447Z,26.25
2022-10-12T09:04:28.422Z,29.67
2022-10-12T09:07:16.906Z,34.25
2022-10-12T09:10:15.638Z,29.08
2022-10-12T09:12:50.955Z,31.88
2022-10-12T09:15:30.095Z,28.67
2022-10-12T09:17:58.304Z,32.42
2022-10-12T09:23:58.148Z,28.95
2022-10-12T09:26:37.015Z,26.13
2022-10-12T09:29:23.384Z,26.98
2022-10-12T09:31:55.933Z,24.73
2022-10-12T09:34:24.495Z,29.92
2022-10-12T09:36:51.130Z,25.80
2022-10-12T09:39:23.481Z,30.65
2022-10-12T09:41:53.257Z,31.02
2022-10-12T09:44:36.214Z,31.38
2022-10-12T09:47:06.166Z,30.52
2022-10-12T09:49:46.992Z,31.15
2022-10-12T09:52:15.459Z,29.75
2022-10-12T09:54:48.433Z,30.45
2022-10-12T09:57:36.764Z,30.48
2022-10-12T10:00:35.833Z,35.28
2022-10-12T10:03:02.792Z,30.75
2022-10-12T10:05:31.650Z,29.80
2022-10-12T10:08:23.624Z,35.47
2022-10-12T10:10:53.956Z,28.73
2022-10-12T10:13:37.306Z,24.17
2022-10-12T10:16:09.373Z,24.98
2022-10-12T10:19:11.460Z,22.55
2022-10-12T10:21:43.684Z,14.93
2022-10-12T10:24:43.474Z,11.25
2022-10-12T10:27:34.165Z,9.57
2022-10-12T10:30:29.970Z,10.85
2022-10-12T10:33:21.635Z,9.55
2022-10-12T10:35:58.568Z,9.93
2022-10-12T10:38:25.279Z,15.48
2022-10-12T10:40:54.411Z,12.55
2022-10-12T10:43:25.877Z,13.82
2022-10-12T10:45:56.639Z,17.77
2022-10-12T10:48:27.808Z,15.90
2022-10-12T10:51:00.356Z,14.30
2022-10-12T10:53:31.251Z,11.57
2022-10-12T10:56:26.109Z,9.35
2022-10-12T10:58:59.833Z,9.55
2022-10-12T11:01:35.957Z,11.93
2022-10-12T11:04:19.122Z,9.85
2022-10-12T11:06:52.020Z,14.65
2022-10-12T11:09:23.396Z,13.43
2022-10-12T11:11:57.418Z,11.73
2022-10-12T11:14:30.997Z,10.60
2022-10-12T11:17:07.379Z,10.85
2022-10-12T11:19:42.196Z,9.63
2022-10-12T11:22:20.266Z,10.63
2022-10-12T11:25:09.296Z,11.18
2022-10-12T11:27:40.647Z,9.00
2022-10-12T11:30:16.826Z,9.10
2022-10-12T11:33:05.835Z,9.35
2022-10-12T11:35:36.321Z,10.73
2022-10-12T11:38:26.978Z,13.07
2022-10-12T11:41:19.116Z,9.15
2022-10-12T11:44:03.818Z,8.95
2022-10-12T11:47:03.044Z,10.40
2022-10-12T11:49:49.370Z,10.55
2022-10-12T11:52:17.479Z,9.60
2022-10-12T11:54:53.689Z,9.90
2022-10-12T11:57:26.934Z,11.10
2022-10-12T12:00:01.397Z,9.98
2022-10-12T12:02:37.818Z,9.95
2022-10-12T12:05:05.357Z,10.63
2022-10-12T12:07:49.380Z,10.98
2022-10-12T12:10:27.951Z,10.95
2022-10-12T12:13:08.006Z,9.68
2022-10-12T12:15:34.377Z,11.10
2022-10-12T12:18:23.403Z,10.10
2022-10-12T12:20:49.697Z,10.55
2022-10-12T12:23:27.074Z,10.85
2022-10-12T12:26:16.278Z,9.57
2022-10-12T12:28:46.406Z,11.02
2022-10-12T12:32:13.359Z,10.95
2022-10-12T12:34:54.458Z,9.95
2022-10-12T12:37:26.700Z,10.60
2022-10-12T12:39:56.530Z,10.25
2022-10-12T12:42:32.019Z,10.18
2022-10-12T12:45:38.891Z,10.75
2022-10-12T12:48:09.696Z,10.48
2022-10-12T12:50:38.784Z,10.77
2022-10-12T12:53:15.920Z,11.52
2022-10-12T12:56:04.621Z,10.77
2022-10-12T12:58:58.009Z,10.40
2022-10-12T13:01:44.559Z,9.82
2022-10-12T13:04:43.321Z,10.18
2022-10-12T13:07:50.155Z,10.18
2022-10-12T13:10:35.127Z,9.43
2022-10-12T13:13:13.617Z,10.20
2022-10-12T13:16:57.139Z,9.50
2022-10-12T13:19:19.850Z,9.40
2022-10-12T13:21:51.444Z,10.85
2022-10-12T13:24:40.744Z,10.23
2022-10-12T13:27:37.941Z,10.65
2022-10-12T13:30:10.374Z,10.60
2022-10-12T13:32:49.890Z,9.80
2022-10-12T13:36:02.287Z,10.10
2022-10-12T13:38:30.678Z,9.68
2022-10-12T13:41:08.284Z,10.05
2022-10-12T13:43:45.749Z,9.50
2022-10-12T13:46:14.945Z,10.55
2022-10-12T13:49:05.951Z,9.52
2022-10-12T13:51:36.994Z,9.68
2022-10-12T13:54:14.673Z,9.90
2022-10-12T13:56:41.572Z,10.60
2022-10-12T13:59:18.838Z,12.05
2022-10-12T14:05:22.335Z,12.07
2022-10-12T14:07:51.540Z,10.90
2022-10-12T14:10:26.372Z,11.68
2022-10-12T14:12:54.033Z,11.50
2022-10-12T14:15:22.079Z,11.05
2022-10-12T14:17:52.794Z,10.68
2022-10-12T14:20:38.225Z,11.20
2022-10-12T14:23:13.510Z,12.15
2022-10-12T14:25:51.241Z,11.18
2022-10-12T14:28:30.986Z,11.73
2022-10-12T14:30:57.391Z,11.73
2022-10-12T14:33:52.522Z,12.02
2022-10-12T14:36:22.202Z,10.68
2022-10-12T14:38:50.246Z,11.57
2022-10-12T14:41:38.114Z,11.35
2022-10-12T14:44:13.507Z,10.65
2022-10-12T14:46:42.810Z,10.90
2022-10-12T14:49:18.720Z,10.93
2022-10-12T14:51:45.533Z,10.88
2022-10-12T14:54:12.306Z,11.18
2022-10-12T14:56:39.403Z,11.30
2022-10-12T14:59:05.798Z,11.15
2022-10-12T15:01:32.227Z,10.50
2022-10-12T15:03:58.591Z,10.60
2022-10-12T15:06:25.060Z,10.30
2022-10-12T15:08:52.445Z,9.25
2022-10-12T15:11:19.118Z,10.30
2022-10-12T15:13:45.605Z,10.38
2022-10-12T15:16:20.469Z,10.50
2022-10-12T15:18:47.173Z,10.18
2022-10-12T15:21:13.613Z,9.88
2022-10-12T15:23:40.140Z,10.32
2022-10-12T15:26:06.722Z,10.15
2022-10-12T15:28:33.187Z,10.90
2022-10-12T15:31:16.905Z,10.50
2022-10-12T15:33:44.479Z,9.57
2022-10-12T15:36:11.076Z,9.27
2022-10-12T15:38:37.536Z,9.65
2022-10-12T15:41:04.749Z,9.70
2022-10-12T15:43:32.980Z,8.95
2022-10-12T15:46:01.242Z,9.65
2022-10-12T15:48:28.286Z,10.57
2022-10-12T15:50:54.799Z,9.75
2022-10-12T15:53:25.501Z,10.50
2022-10-12T15:55:54.041Z,10.75
2022-10-12T15:58:21.540Z,12.65
2022-10-12T16:00:48.255Z,16.25
2022-10-12T16:03:19.177Z,16.38
2022-10-12T16:05:49.122Z,15.07
2022-10-12T16:08:15.491Z,14.20
2022-10-12T16:10:42.632Z,15.73
2022-10-12T16:13:12.903Z,16.00
2022-10-12T16:15:39.644Z,14.18
2022-10-12T16:18:06.713Z,14.88
2022-10-12T16:20:37.059Z,16.05
2022-10-12T16:23:06.467Z,20.10
2022-10-12T16:25:34.447Z,18.92
2022-10-12T16:28:00.796Z,19.67
2022-10-12T16:30:27.464Z,15.82
2022-10-12T16:32:54.481Z,15.35
2022-10-12T16:35:21.254Z,18.92
2022-10-12T16:37:47.599Z,22.70
2022-10-12T16:40:15.713Z,19.27
2022-10-12T16:42:42.792Z,23.00
2022-10-12T16:45:09.788Z,22.42
2022-10-12T16:47:40.482Z,28.25
2022-10-12T16:50:09.487Z,35.53
2022-10-12T16:52:35.861Z,31.75
2022-10-12T16:55:02.284Z,33.15
2022-10-12T16:57:28.698Z,27.02
2022-10-12T16:59:55.121Z,27.90
2022-10-12T17:02:21.590Z,30.80
2022-10-12T17:04:47.991Z,29.00
2022-10-12T17:07:15.054Z,34.88
2022-10-12T17:09:41.639Z,35.75
2022-10-12T17:12:08.299Z,32.22
2022-10-12T17:14:34.706Z,32.58
2022-10-12T17:17:01.351Z,27.45
2022-10-12T17:19:32.990Z,26.85
2022-10-12T17:22:00.900Z,27.83
2022-10-12T17:24:29.159Z,23.92
2022-10-12T17:26:56.437Z,23.35
2022-10-12T17:29:25.162Z,24.80
2022-10-12T17:31:53.000Z,29.00
2022-10-12T17:34:28.591Z,29.10
2022-10-12T17:36:56.553Z,26.40
2022-10-12T17:39:24.261Z,26.38
2022-10-12T17:41:50.822Z,26.33
2022-10-12T17:44:17.269Z,22.42
2022-10-12T17:46:51.137Z,24.23
2022-10-12T17:49:24.235Z,22.98
2022-10-12T17:51:51.190Z,21.98
2022-10-12T17:54:19.107Z,23.90
2022-10-12T17:56:45.750Z,24.77
2022-10-12T17:59:15.034Z,24.80
2022-10-12T18:01:41.613Z,24.30
2022-10-12T18:04:08.733Z,24.50
2022-10-12T18:06:35.098Z,24.38
2022-10-12T18:09:04.398Z,23.20
2022-10-12T18:11:31.078Z,23.42
2022-10-12T18:13:57.711Z,26.13
2022-10-12T18:16:26.847Z,25.27
2022-10-12T18:18:54.720Z,25.63
2022-10-12T18:21:23.931Z,25.50
2022-10-12T18:23:51.002Z,25.75
2022-10-12T18:26:22.048Z,25.80
2022-10-12T18:28:55.469Z,25.85
2022-10-12T18:31:24.458Z,22.83
2022-10-12T18:33:51.349Z,22.13
2022-10-12T18:36:18.670Z,22.63
2022-10-12T18:38:45.139Z,22.38
2022-10-12T18:41:15.241Z,24.38
2022-10-12T18:43:41.732Z,22.48
2022-10-12T18:46:10.887Z,21.67
2022-10-12T18:48:37.580Z,24.67
2022-10-12T18:51:15.302Z,23.73
2022-10-12T18:53:41.962Z,26.10
2022-10-12T18:56:09.804Z,31.65
2022-10-12T18:58:38.117Z,35.33
2022-10-12T19:01:23.391Z,28.85
2022-10-12T19:03:50.856Z,25.48
2022-10-12T19:06:26.242Z,26.67
2022-10-12T19:08:55.273Z,27.95
2022-10-12T19:11:23.134Z,27.80
2022-10-12T19:14:03.988Z,26.88
2022-10-12T19:16:32.127Z,26.38
2022-10-12T19:19:04.816Z,24.90
2022-10-12T19:21:31.485Z,25.48
2022-10-12T19:23:58.117Z,30.38
2022-10-12T19:26:27.417Z,29.58
2022-10-12T19:28:55.466Z,29.20
2022-10-12T19:31:25.923Z,29.13
2022-10-12T19:33:58.137Z,28.33
2022-10-12T19:36:24.974Z,31.02
2022-10-12T19:38:51.307Z,27.20
2022-10-12T19:41:17.641Z,25.10
2022-10-12T19:43:44.099Z,24.08
2022-10-12T19:46:12.533Z,28.55
2022-10-12T19:48:41.895Z,26.38
2022-10-12T19:51:11.665Z,30.17
2022-10-12T19:53:39.048Z,29.33
2022-10-12T19:56:10.561Z,34.13
2022-10-12T19:58:37.690Z,33.47
2022-10-12T20:01:10.528Z,38.95
2022-10-12T20:03:37.323Z,33.95
2022-10-12T20:06:07.758Z,35.42
2022-10-12T20:08:34.521Z,33.25
2022-10-12T20:11:00.875Z,34.50
2022-10-12T20:13:27.288Z,34.03
2022-10-12T20:15:54.866Z,36.28
2022-10-12T20:18:21.639Z,36.13
2022-10-12T20:20:48.424Z,37.28
2022-10-12T20:23:15.263Z,43.25
2022-10-12T20:25:52.947Z,41.70
2022-10-12T20:28:19.927Z,34.67
2022-10-12T20:30:47.221Z,34.17
2022-10-12T20:33:14.151Z,34.55
2022-10-12T20:35:48.034Z,31.63
2022-10-12T20:38:14.988Z,31.77
2022-10-12T20:40:41.358Z,30.45
2022-10-12T20:43:08.195Z,31.75
2022-10-12T20:45:35.873Z,28.67
2022-10-12T20:48:02.567Z,29.50
2022-10-12T20:50:28.968Z,29.30
2022-10-12T20:52:55.343Z,28.63
2022-10-12T20:55:22.167Z,27.65
2022-10-12T20:57:48.603Z,29.50
2022-10-12T21:00:15.192Z,31.80
2022-10-12T21:02:41.625Z,31.38
2022-10-12T21:05:08.644Z,31.58
2022-10-12T21:07:35.624Z,42.38
2022-10-12T21:10:02.112Z,29.85
2022-10-12T21:12:28.443Z,41.85
2022-10-12T21:14:54.809Z,29.17
2022-10-12T21:17:21.125Z,29.40
2022-10-12T21:19:47.498Z,29.52
2022-10-12T21:22:13.845Z,28.83
2022-10-12T21:24:40.149Z,30.10
2022-10-12T21:27:06.484Z,32.95
2022-10-12T21:29:32.798Z,31.02
2022-10-12T21:31:59.136Z,28.38
2022-10-12T21:34:25.591Z,33.35
2022-10-12T21:36:52.087Z,32.75
2022-10-12T21:39:18.559Z,37.28
2022-10-12T21:41:44.955Z,36.63
2022-10-12T21:44:12.117Z,38.60
2022-10-12T21:46:38.632Z,36.10
2022-10-12T21:49:07.812Z,41.55
2022-10-12T21:51:36.504Z,31.42
2022-10-12T21:54:04.234Z,27.83
2022-10-12T21:56:32.612Z,25.65
2022-10-12T21:59:00.401Z,29.30
2022-10-12T22:01:29.467Z,27.55
2022-10-12T22:03:58.213Z,27.08
2022-10-12T22:06:26.475Z,31.45
2022-10-12T22:08:58.324Z,33.05
2022-10-12T22:11:27.089Z,33.78
2022-10-12T22:13:59.114Z,35.90
2022-10-12T22:16:25.630Z,36.83
2022-10-12T22:18:52.014Z,38.42
2022-10-12T22:21:19.009Z,40.83
2022-10-12T22:23:45.917Z,42.53
2022-10-12T22:26:16.701Z,41.75
2022-10-12T22:28:43.716Z,41.65
2022-10-12T22:31:12.667Z,39.10
2022-10-12T22:33:39.022Z,41.55
2022-10-12T22:36:07.299Z,40.88
2022-10-12T22:38:34.969Z,41.03
2022-10-12T22:41:03.316Z,43.92
2022-10-12T22:43:30.655Z,41.97
2022-10-12T22:45:57.189Z,42.85
2022-10-12T22:48:24.456Z,41.53
2022-10-12T22:50:51.681Z,38.30
2022-10-12T22:53:20.410Z,42.05
2022-10-12T22:55:48.099Z,43.63
2022-10-12T22:58:15.034Z,42.22
2022-10-12T23:00:41.718Z,40.85
2022-10-12T23:03:08.058Z,40.38
2022-10-12T23:05:34.400Z,40.03
2022-10-12T23:08:00.808Z,45.03
2022-10-12T23:10:27.180Z,45.17
2022-10-12T23:12:53.632Z,39.30
2022-10-12T23:15:20.058Z,40.67
2022-10-12T23:17:46.387Z,43.63
2022-10-12T23:20:12.705Z,43.83
2022-10-12T23:22:39.079Z,46.63
2022-10-12T23:25:05.844Z,43.83
2022-10-12T23:27:32.205Z,44.60
2022-10-12T23:29:58.557Z,45.30
2022-10-12T23:32:24.944Z,45.80
2022-10-12T23:34:51.375Z,47.72
2022-10-12T23:37:17.756Z,44.80
2022-10-12T23:39:44.060Z,45.65
2022-10-12T23:42:10.447Z,44.83
2022-10-12T23:44:36.772Z,44.28
2022-10-12T23:47:03.185Z,42.45
2022-10-12T23:49:29.488Z,43.78
2022-10-12T23:51:55.799Z,45.55
2022-10-12T23:54:23.337Z,45.72
2022-10-12T23:56:49.663Z,43.70
2022-10-12T23:59:15.997Z,43.63
